createdAt,value
2018-11-29T00:01:13.035Z,59.33
2018-11-29T00:05:21.931Z,59.23
2018-11-29T00:09:39.725Z,51.60
2018-11-29T00:13:47.413Z,63.47
2018-11-29T00:17:55.118Z,60.93
2018-11-29T00:22:02.824Z,59.40
2018-11-29T00:26:10.603Z,59.87
2018-11-29T00:30:27.447Z,56.47
2018-11-29T00:34:37.751Z,59.17
2018-11-29T00:38:45.483Z,55.07
2018-11-29T00:42:53.244Z,57.30
2018-11-29T00:47:01.020Z,61.03
2018-11-29T00:51:09.050Z,62.10
2018-11-29T00:55:21.858Z,63.13
2018-11-29T00:59:30.441Z,59.97
2018-11-29T01:03:39.011Z,65.90
2018-11-29T01:07:47.312Z,59.83
2018-11-29T01:11:55.850Z,58.67
2018-11-29T01:16:03.718Z,55.33
2018-11-29T01:20:19.026Z,61.30
2018-11-29T01:24:27.478Z,64.33
2018-11-29T01:28:35.388Z,57.90
2018-11-29T01:32:43.496Z,59.17
2018-11-29T01:36:51.357Z,60.80
2018-11-29T01:40:59.083Z,67.10
2018-11-29T01:45:07.111Z,63.33
2018-11-29T01:49:15.001Z,64.60
2018-11-29T01:53:22.908Z,58.90
2018-11-29T01:57:30.684Z,65.53
2018-11-29T02:01:38.432Z,64.33
2018-11-29T02:05:46.048Z,62.93
2018-11-29T02:10:13.091Z,60.90
2018-11-29T02:14:20.930Z,66.13
2018-11-29T02:18:28.590Z,61.27
2018-11-29T02:22:36.278Z,61.90
2018-11-29T02:26:43.906Z,66.13
2018-11-29T02:30:51.499Z,61.73
2018-11-29T02:35:01.617Z,59.10
2018-11-29T02:39:10.958Z,58.07
2018-11-29T02:43:18.627Z,55.93
2018-11-29T02:47:27.232Z,59.93
2018-11-29T02:51:34.945Z,58.47
2018-11-29T02:55:42.680Z,56.50
2018-11-29T02:59:50.359Z,59.47
2018-11-29T03:03:58.418Z,55.60
2018-11-29T03:08:06.432Z,55.53
2018-11-29T03:12:14.127Z,63.90
2018-11-29T03:16:21.924Z,59.23
2018-11-29T03:20:29.993Z,60.93
2018-11-29T03:24:37.797Z,58.30
2018-11-29T03:28:45.671Z,60.63
2018-11-29T03:32:54.325Z,60.90
2018-11-29T03:37:01.852Z,60.60
2018-11-29T03:41:10.081Z,59.13
2018-11-29T03:45:18.534Z,54.73
2018-11-29T03:49:26.571Z,57.07
2018-11-29T03:53:34.379Z,56.23
2018-11-29T03:57:43.159Z,58.37
2018-11-29T04:01:57.637Z,51.53
2018-11-29T04:06:07.303Z,54.00
2018-11-29T04:10:17.039Z,52.93
2018-11-29T04:14:25.440Z,56.53
2018-11-29T04:18:33.083Z,57.27
2018-11-29T04:22:40.674Z,57.60
2018-11-29T04:26:48.143Z,55.70
2018-11-29T04:30:55.912Z,57.07
2018-11-29T04:35:03.699Z,53.40
2018-11-29T04:39:11.293Z,55.77
2018-11-29T04:43:19.231Z,51.40
2018-11-29T04:47:32.714Z,53.13
2018-11-29T04:51:43.465Z,60.23
2018-11-29T04:55:51.049Z,50.77
2018-11-29T04:59:58.760Z,55.70
2018-11-29T05:04:06.959Z,53.83
2018-11-29T05:08:14.864Z,52.67
2018-11-29T05:12:22.662Z,52.10
2018-11-29T05:16:30.631Z,50.60
2018-11-29T05:20:38.299Z,51.37
2018-11-29T05:24:46.164Z,57.07
2018-11-29T05:28:54.363Z,54.57
2018-11-29T05:33:02.205Z,58.57
2018-11-29T05:37:10.229Z,55.73
2018-11-29T05:41:18.056Z,54.00
2018-11-29T05:45:26.430Z,54.13
2018-11-29T05:49:34.444Z,52.10
2018-11-29T05:53:42.319Z,57.97
2018-11-29T05:57:49.832Z,51.53
2018-11-29T06:01:58.123Z,54.97
2018-11-29T06:06:05.756Z,55.43
2018-11-29T06:10:14.250Z,57.87
2018-11-29T06:14:22.744Z,54.53
2018-11-29T06:18:30.833Z,56.43
2018-11-29T06:22:39.606Z,59.40
2018-11-29T06:26:47.287Z,51.63
2018-11-29T06:30:55.929Z,54.47
2018-11-29T06:35:06.149Z,56.30
2018-11-29T06:39:14.069Z,59.30
2018-11-29T06:43:22.005Z,59.20
2018-11-29T06:47:30.207Z,55.17
2018-11-29T06:51:38.126Z,55.97
2018-11-29T06:55:46.665Z,56.23
2018-11-29T06:59:54.820Z,56.67
2018-11-29T07:04:03.708Z,60.83
2018-11-29T07:08:11.698Z,58.87
2018-11-29T07:12:20.099Z,57.50
2018-11-29T07:16:27.708Z,52.93
2018-11-29T07:20:36.094Z,63.27
2018-11-29T07:24:43.778Z,56.67
2018-11-29T07:28:51.682Z,56.67
2018-11-29T07:32:59.659Z,57.33
2018-11-29T07:37:07.404Z,58.77
2018-11-29T07:41:14.844Z,57.70
2018-11-29T07:45:23.539Z,61.17
2018-11-29T07:49:33.792Z,56.67
2018-11-29T07:53:41.218Z,60.73
2018-11-29T07:57:50.331Z,60.80
2018-11-29T08:01:57.826Z,60.20
2018-11-29T08:06:05.403Z,60.07
2018-11-29T08:10:17.329Z,59.43
2018-11-29T08:14:24.904Z,54.83
2018-11-29T08:18:33.248Z,57.40
2018-11-29T08:22:40.829Z,61.00
2018-11-29T08:26:48.241Z,59.13
2018-11-29T08:30:55.643Z,56.97
2018-11-29T08:35:03.541Z,59.33
2018-11-29T08:39:14.434Z,56.03
2018-11-29T08:43:23.307Z,59.90
2018-11-29T08:47:33.556Z,59.33
2018-11-29T08:51:41.457Z,56.30
2018-11-29T08:55:49.067Z,58.90
2018-11-29T08:59:56.955Z,49.03
2018-11-29T09:04:04.507Z,58.60
2018-11-29T09:08:12.196Z,56.07
2018-11-29T09:12:19.787Z,57.13
2018-11-29T09:16:27.601Z,58.00
2018-11-29T09:20:38.668Z,58.60
2018-11-29T09:24:46.242Z,53.37
2018-11-29T09:28:53.950Z,52.87
2018-11-29T09:33:01.477Z,53.00
2018-11-29T09:37:09.374Z,56.50
2018-11-29T09:41:17.225Z,53.97
2018-11-29T09:45:26.143Z,54.50
2018-11-29T09:49:33.858Z,47.17
2018-11-29T09:53:43.339Z,49.40
2018-11-29T09:57:51.698Z,47.30
2018-11-29T10:01:59.439Z,47.70
2018-11-29T10:06:07.091Z,47.80
2018-11-29T10:10:15.104Z,46.67
2018-11-29T10:14:22.750Z,51.57
2018-11-29T10:18:31.117Z,49.93
2018-11-29T10:22:40.521Z,46.37
2018-11-29T10:26:48.347Z,43.07
2018-11-29T10:31:03.849Z,45.20
2018-11-29T10:35:12.658Z,43.90
2018-11-29T10:39:20.731Z,48.17
2018-11-29T10:43:28.342Z,46.77
2018-11-29T10:47:36.863Z,48.10
2018-11-29T10:51:44.393Z,45.97
2018-11-29T10:55:52.093Z,44.17
2018-11-29T11:00:00.010Z,47.30
2018-11-29T11:04:08.088Z,42.93
2018-11-29T11:08:16.068Z,43.50
2018-11-29T11:12:23.768Z,40.27
2018-11-29T11:16:31.344Z,41.70
2018-11-29T11:20:39.231Z,44.43
2018-11-29T11:24:46.871Z,45.47
2018-11-29T11:28:54.607Z,45.63
2018-11-29T11:33:02.587Z,45.13
2018-11-29T11:37:10.353Z,45.17
2018-11-29T11:41:18.118Z,41.73
2018-11-29T11:45:26.030Z,41.67
2018-11-29T11:49:34.117Z,42.30
2018-11-29T11:53:41.982Z,41.77
2018-11-29T11:57:50.570Z,43.53
2018-11-29T12:01:58.527Z,43.33
2018-11-29T12:06:06.178Z,45.60
2018-11-29T12:10:15.758Z,42.50
2018-11-29T12:14:26.879Z,43.17
2018-11-29T12:18:35.554Z,41.77
2018-11-29T12:22:43.365Z,41.63
2018-11-29T12:26:51.494Z,43.87
2018-11-29T12:31:06.750Z,36.13
2018-11-29T12:35:14.424Z,40.17
2018-11-29T12:39:26.734Z,42.37
2018-11-29T12:43:37.321Z,42.70
2018-11-29T12:47:47.465Z,35.33
2018-11-29T12:51:55.872Z,42.67
2018-11-29T12:56:06.521Z,43.40
2018-11-29T13:00:19.392Z,39.63
2018-11-29T13:04:27.389Z,36.93
2018-11-29T13:08:35.193Z,37.57
2018-11-29T13:12:43.137Z,37.03
2018-11-29T13:16:54.311Z,40.60
2018-11-29T13:21:07.928Z,40.97
2018-11-29T13:25:20.383Z,39.10
2018-11-29T13:29:28.655Z,43.27
2018-11-29T13:33:41.866Z,37.63
2018-11-29T13:38:18.185Z,39.97
2018-11-29T13:42:26.097Z,42.20
2018-11-29T13:46:34.248Z,41.17
2018-11-29T13:50:42.340Z,43.47
2018-11-29T13:54:50.910Z,43.40
2018-11-29T13:58:58.370Z,43.23
2018-11-29T14:03:15.639Z,41.60
2018-11-29T14:07:27.090Z,42.13
2018-11-29T14:11:38.024Z,36.33
2018-11-29T14:15:45.726Z,39.13
2018-11-29T14:19:53.854Z,42.77
2018-11-29T14:24:02.704Z,39.27
2018-11-29T14:28:11.457Z,43.00
2018-11-29T14:32:19.009Z,40.07
2018-11-29T14:36:28.467Z,39.93
2018-11-29T14:40:38.812Z,41.67
2018-11-29T14:44:47.289Z,39.57
2018-11-29T14:48:56.074Z,39.87
2018-11-29T14:53:03.669Z,37.90
2018-11-29T14:57:20.736Z,39.83
2018-11-29T15:01:29.044Z,35.60
2018-11-29T15:05:38.465Z,38.43
2018-11-29T15:09:46.368Z,34.87
2018-11-29T15:13:54.119Z,36.27
2018-11-29T15:18:01.953Z,39.83
2018-11-29T15:22:10.925Z,41.17
2018-11-29T15:26:19.608Z,35.63
2018-11-29T15:30:27.812Z,33.13
2018-11-29T15:34:36.824Z,34.63
2018-11-29T15:38:45.099Z,32.47
2018-11-29T15:42:54.051Z,34.43
2018-11-29T15:47:01.537Z,36.37
2018-11-29T15:51:10.583Z,28.90
2018-11-29T15:55:30.128Z,34.70
2018-11-29T15:59:41.159Z,36.10
2018-11-29T16:03:52.515Z,32.47
2018-11-29T16:08:01.246Z,29.90
2018-11-29T16:12:12.446Z,36.93
2018-11-29T16:16:19.988Z,38.13
2018-11-29T16:20:32.876Z,32.23
2018-11-29T16:24:44.415Z,32.13
2018-11-29T16:28:56.229Z,29.53
2018-11-29T16:33:35.317Z,30.73
2018-11-29T16:37:43.993Z,32.30
2018-11-29T16:41:55.584Z,32.57
2018-11-29T16:46:03.852Z,32.20
2018-11-29T16:50:17.263Z,31.07
2018-11-29T16:54:25.123Z,30.17
2018-11-29T16:58:33.482Z,34.33
2018-11-29T17:02:41.033Z,27.70
2018-11-29T17:06:48.179Z,28.87
2018-11-29T17:10:56.734Z,27.70
2018-11-29T17:15:04.346Z,26.77
2018-11-29T17:19:11.936Z,29.00
2018-11-29T17:23:25.995Z,28.77
2018-11-29T17:27:33.832Z,67.37
2018-11-29T17:31:43.943Z,26.87
2018-11-29T17:35:51.735Z,27.57
2018-11-29T17:40:04.071Z,25.40
2018-11-29T17:44:12.019Z,27.67
2018-11-29T17:48:19.940Z,30.60
2018-11-29T17:52:28.085Z,30.03
2018-11-29T17:56:35.812Z,28.57
2018-11-29T18:00:50.590Z,26.03
2018-11-29T18:04:59.185Z,25.40
2018-11-29T18:09:12.197Z,29.60
2018-11-29T18:13:32.010Z,29.97
2018-11-29T18:17:44.773Z,30.70
2018-11-29T18:21:59.760Z,26.13
2018-11-29T18:26:08.264Z,26.70
2018-11-29T18:30:21.125Z,22.90
2018-11-29T18:34:29.277Z,26.00
2018-11-29T18:38:37.115Z,22.43
2018-11-29T18:42:49.140Z,23.13
2018-11-29T18:47:02.296Z,23.53
2018-11-29T18:51:10.561Z,24.53
2018-11-29T18:55:18.730Z,22.87
2018-11-29T18:59:26.649Z,27.57
2018-11-29T19:03:34.651Z,25.33
2018-11-29T19:07:42.914Z,28.57
2018-11-29T19:11:51.282Z,25.60
2018-11-29T19:15:59.008Z,23.83
2018-11-29T19:20:09.269Z,24.17
2018-11-29T19:24:26.049Z,25.20
2018-11-29T19:28:37.186Z,22.53
2018-11-29T19:32:45.303Z,23.40
2018-11-29T19:37:00.998Z,25.60
2018-11-29T19:41:11.841Z,24.47
2018-11-29T19:45:19.951Z,21.30
2018-11-29T19:49:27.733Z,24.07
2018-11-29T19:53:35.999Z,24.03
2018-11-29T19:57:43.933Z,20.80
2018-11-29T20:01:58.755Z,21.97
2018-11-29T20:06:07.218Z,20.77
2018-11-29T20:10:27.086Z,22.73
2018-11-29T20:14:34.078Z,23.50
2018-11-29T20:18:43.405Z,24.40
2018-11-29T20:22:51.448Z,24.27
2018-11-29T20:26:59.139Z,24.23
2018-11-29T20:31:07.623Z,20.00
2018-11-29T20:35:20.226Z,21.10
2018-11-29T20:39:28.221Z,20.83
2018-11-29T20:43:36.136Z,23.43
2018-11-29T20:47:44.364Z,21.03
2018-11-29T20:51:52.005Z,19.67
2018-11-29T20:55:59.561Z,23.13
2018-11-29T21:00:12.020Z,21.50
2018-11-29T21:04:20.116Z,21.97
2018-11-29T21:08:28.001Z,23.10
2018-11-29T21:12:36.540Z,21.73
2018-11-29T21:16:45.803Z,21.43
2018-11-29T21:20:53.257Z,20.20
2018-11-29T21:25:00.715Z,18.77
2018-11-29T21:29:09.355Z,21.37
2018-11-29T21:33:17.491Z,22.23
2018-11-29T21:37:29.784Z,22.57
2018-11-29T21:41:38.651Z,21.67
2018-11-29T21:45:48.639Z,23.73
2018-11-29T21:49:56.665Z,21.97
2018-11-29T21:54:08.239Z,22.13
2018-11-29T21:58:22.291Z,22.53
2018-11-29T22:02:35.783Z,22.17
2018-11-29T22:06:46.061Z,22.90
2018-11-29T22:11:03.870Z,20.70
2018-11-29T22:15:13.929Z,22.37
2018-11-29T22:19:24.339Z,23.10
2018-11-29T22:23:38.718Z,24.53
2018-11-29T22:27:49.440Z,23.27
2018-11-29T22:31:57.956Z,23.20
2018-11-29T22:36:07.927Z,25.67
2018-11-29T22:40:24.321Z,26.80
2018-11-29T22:44:34.003Z,23.57
2018-11-29T22:48:53.191Z,24.47
2018-11-29T22:53:04.380Z,26.13
2018-11-29T22:57:11.781Z,24.40
2018-11-29T23:01:28.804Z,28.33
2018-11-29T23:05:36.475Z,22.60
2018-11-29T23:09:43.936Z,24.43
2018-11-29T23:13:51.403Z,25.67
2018-11-29T23:17:59.219Z,22.00
2018-11-29T23:22:06.946Z,22.17
2018-11-29T23:26:14.578Z,22.43
2018-11-29T23:30:22.378Z,23.33
2018-11-29T23:34:29.844Z,21.83
2018-11-29T23:38:38.343Z,25.70
2018-11-29T23:42:46.207Z,25.47
2018-11-29T23:46:53.744Z,24.50
2018-11-29T23:51:01.260Z,27.77
2018-11-29T23:55:11.318Z,22.00
2018-11-29T23:59:19.018Z,23.53
